Time;durP1;ratioP1;P1;durP2;ratioP2;P2;SDS_P1;SDS_P2;PMS_P1;PMS_P2;Temp;Humidity;BMP_temperature;BMP_pressure;BME280_temperature;BME280_humidity;BME280_pressure;Samples;Min_cycle;Max_cycle;Signal;HPM_P1;HPM_P2
2021/12/08 00:01:50;;;;;;;91.82;41.65;;;2.70;99.90;;;;;;5013627;28;20444;-76
2021/12/08 00:04:16;;;;;;;98.30;44.15;;;2.80;99.90;;;;;;5014005;28;20088;-75
2021/12/08 00:06:41;;;;;;;102.55;44.80;;;2.70;99.90;;;;;;5013632;28;20022;-75
2021/12/08 00:09:26;;;;;;;89.97;41.58;;;2.70;99.90;;;;;;5013856;28;20110;-75
2021/12/08 00:14:35;;;;;;;100.30;44.40;;;2.80;99.90;;;;;;5013689;28;20117;-77
2021/12/08 00:17:01;;;;;;;101.40;43.33;;;2.70;99.90;;;;;;5015129;28;20054;-77
2021/12/08 00:19:28;;;;;;;99.88;45.08;;;2.70;99.90;;;;;;5013751;28;20120;-76
2021/12/08 00:21:54;;;;;;;105.82;45.47;;;2.70;99.90;;;;;;5013685;28;20391;-77
2021/12/08 00:24:19;;;;;;;101.70;45.10;;;2.80;99.90;;;;;;5014686;28;20032;-77
2021/12/08 00:26:45;;;;;;;102.10;44.47;;;2.70;99.90;;;;;;5014950;28;20030;-76
2021/12/08 00:29:11;;;;;;;99.88;44.95;;;2.70;99.90;;;;;;5012897;28;20038;-74
2021/12/08 00:31:36;;;;;;;108.25;45.63;;;2.60;99.90;;;;;;5013017;28;20081;-76
2021/12/08 00:34:02;;;;;;;105.97;47.38;;;2.60;99.90;;;;;;5013497;28;20057;-77
2021/12/08 00:36:39;;;;;;;96.97;43.70;;;2.60;99.90;;;;;;5015000;28;20041;-77
2021/12/08 00:39:05;;;;;;;112.10;45.88;;;2.60;99.90;;;;;;5013045;28;20041;-77
2021/12/08 00:41:30;;;;;;;108.78;46.60;;;2.70;99.90;;;;;;5012996;28;20148;-76
2021/12/08 00:43:56;;;;;;;112.15;45.58;;;2.60;99.90;;;;;;5013269;28;20026;-76
2021/12/08 00:46:22;;;;;;;108.35;45.97;;;2.60;99.90;;;;;;5014605;28;20090;-75
2021/12/08 00:48:49;;;;;;;108.25;45.97;;;2.70;99.90;;;;;;5020333;28;20057;-75
2021/12/08 00:51:16;;;;;;;108.22;46.30;;;2.70;99.90;;;;;;5012513;28;20022;-75
2021/12/08 00:53:42;;;;;;;106.00;46.08;;;2.70;99.90;;;;;;5012809;28;20022;-76
2021/12/08 00:56:09;;;;;;;103.15;45.85;;;2.70;99.90;;;;;;5012493;28;20541;-75
2021/12/08 00:58:34;;;;;;;109.93;45.70;;;2.70;99.90;;;;;;5012946;28;20060;-75
2021/12/08 01:01:00;;;;;;;111.18;47.67;;;2.60;99.90;;;;;;5012831;28;20450;-75
2021/12/08 01:03:25;;;;;;;109.65;46.97;;;2.70;99.90;;;;;;5013018;28;20437;-76
2021/12/08 01:05:54;;;;;;;102.22;44.67;;;2.60;99.90;;;;;;5017917;28;20030;-76
2021/12/08 01:08:23;;;;;;;114.00;47.58;;;2.70;99.90;;;;;;5018553;28;20049;-77
2021/12/08 01:10:51;;;;;;;110.35;45.13;;;2.70;99.90;;;;;;5018302;28;20034;-76
2021/12/08 01:13:17;;;;;;;114.15;47.03;;;2.70;99.90;;;;;;5015931;28;20033;-76
2021/12/08 01:15:48;;;;;;;110.18;45.17;;;2.60;99.90;;;;;;5015348;28;20022;-76
2021/12/08 01:18:16;;;;;;;109.70;44.42;;;2.60;99.90;;;;;;5021054;28;20022;-76
2021/12/08 01:20:42;;;;;;;118.22;45.90;;;2.60;99.90;;;;;;5013911;28;20122;-76
2021/12/08 01:23:07;;;;;;;109.32;45.20;;;2.60;99.90;;;;;;5022214;28;20032;-76
2021/12/08 01:25:33;;;;;;;103.20;43.90;;;2.70;99.90;;;;;;5020508;28;20037;-76
2021/12/08 01:27:59;;;;;;;118.72;46.95;;;2.70;99.90;;;;;;5023786;28;20036;-75
2021/12/08 01:30:25;;;;;;;107.47;43.95;;;2.70;99.90;;;;;;5025614;28;20112;-76
2021/12/08 01:32:53;;;;;;;111.78;45.88;;;2.70;99.90;;;;;;5017234;28;20435;-77
2021/12/08 01:35:18;;;;;;;106.93;44.75;;;2.70;99.90;;;;;;5016064;28;20383;-76
2021/12/08 01:37:44;;;;;;;97.10;42.50;;;2.70;99.90;;;;;;5016855;28;20029;-75
2021/12/08 01:40:12;;;;;;;106.97;43.30;;;2.70;99.90;;;;;;5029547;28;20149;-76
2021/12/08 01:42:45;;;;;;;107.93;43.63;;;2.70;99.90;;;;;;5025726;28;20037;-75
2021/12/08 01:48:09;;;;;;;103.47;42.20;;;2.80;99.90;;;;;;5016298;28;20056;-77
2021/12/08 01:50:35;;;;;;;101.30;41.03;;;2.80;99.90;;;;;;5018657;28;20396;-78
2021/12/08 01:53:04;;;;;;;94.55;41.15;;;2.80;99.90;;;;;;5021505;28;20076;-76
2021/12/08 01:55:30;;;;;;;93.25;39.65;;;2.80;99.90;;;;;;5028758;28;20049;-76
2021/12/08 01:57:55;;;;;;;85.82;39.22;;;2.80;99.90;;;;;;5028725;28;20479;-76
2021/12/08 02:00:27;;;;;;;98.50;41.20;;;2.80;99.90;;;;;;5020154;28;20026;-76
2021/12/08 02:02:53;;;;;;;97.47;40.70;;;2.90;99.90;;;;;;5020644;28;20076;-76
2021/12/08 02:05:18;;;;;;;93.35;38.72;;;2.90;99.90;;;;;;5019423;28;20037;-76
2021/12/08 02:07:44;;;;;;;91.53;40.58;;;2.90;99.90;;;;;;5018871;28;20498;-77
2021/12/08 02:10:10;;;;;;;95.20;39.22;;;2.90;99.90;;;;;;5018235;28;20026;-77
2021/12/08 02:12:37;;;;;;;89.40;37.67;;;2.90;99.90;;;;;;5018453;28;20022;-75
2021/12/08 02:15:05;;;;;;;91.45;39.40;;;2.90;99.90;;;;;;5016472;28;20145;-76
2021/12/08 02:17:30;;;;;;;85.43;37.72;;;3.00;99.90;;;;;;5017016;28;20037;-78
2021/12/08 02:19:56;;;;;;;90.35;38.35;;;3.00;99.90;;;;;;5015501;28;20030;-77
2021/12/08 02:22:21;;;;;;;90.03;38.17;;;3.00;99.90;;;;;;5015556;28;20041;-77
2021/12/08 02:24:47;;;;;;;87.18;37.63;;;3.00;99.90;;;;;;5015362;28;20037;-76
2021/12/08 02:27:13;;;;;;;89.93;37.53;;;3.00;99.90;;;;;;5016010;28;20026;-76
2021/12/08 02:29:47;;;;;;;81.05;36.42;;;3.00;99.90;;;;;;5016126;28;20112;-75
2021/12/08 02:32:42;;;;;;;61.15;28.33;;;3.00;99.90;;;;;;5016350;28;20424;-76
2021/12/08 02:48:38;;;;;;;76.40;33.77;;;3.10;99.90;;;;;;5036718;28;20684;-77
2021/12/08 02:51:04;;;;;;;72.95;33.20;;;3.10;99.90;;;;;;5034582;28;20306;-76
2021/12/08 02:53:32;;;;;;;76.95;33.65;;;3.20;99.90;;;;;;5034638;28;20036;-76
2021/12/08 02:55:57;;;;;;;84.93;34.13;;;3.20;99.90;;;;;;5034086;28;20228;-77
2021/12/08 02:58:25;;;;;;;78.72;32.58;;;3.20;99.90;;;;;;5034204;28;20026;-76
2021/12/08 03:00:59;;;;;;;75.78;32.58;;;3.30;99.90;;;;;;5034628;28;20033;-75
2021/12/08 03:03:25;;;;;;;76.53;33.70;;;3.30;99.90;;;;;;5037079;28;20426;-75
2021/12/08 03:05:50;;;;;;;79.50;31.67;;;3.30;99.90;;;;;;5034782;28;20037;-75
2021/12/08 03:08:16;;;;;;;72.82;31.98;;;3.30;99.90;;;;;;5034390;28;20033;-75
2021/12/08 03:10:45;;;;;;;72.85;32.22;;;3.30;99.90;;;;;;5036451;28;20509;-75
2021/12/08 03:13:12;;;;;;;72.82;30.98;;;3.30;99.90;;;;;;5035253;28;20029;-75
2021/12/08 03:15:39;;;;;;;68.63;31.85;;;3.30;99.90;;;;;;5034072;28;20141;-76
2021/12/08 03:18:06;;;;;;;71.13;30.63;;;3.40;99.90;;;;;;5034497;28;20053;-75
2021/12/08 03:20:40;;;;;;;64.75;29.65;;;3.30;99.90;;;;;;5034091;28;20033;-75
2021/12/08 03:23:08;;;;;;;54.22;22.25;;;3.40;99.90;;;;;;5034469;28;20136;-74
2021/12/08 03:25:39;;;;;;;68.07;29.17;;;3.40;99.90;;;;;;5034066;28;20033;-75
2021/12/08 03:28:21;;;;;;;65.10;29.95;;;3.40;99.90;;;;;;5034181;28;20103;-73
2021/12/08 03:31:02;;;;;;;68.45;29.95;;;3.50;99.90;;;;;;5033830;28;20394;-74
2021/12/08 03:33:27;;;;;;;65.22;29.63;;;3.50;99.90;;;;;;5033623;28;20483;-75
2021/12/08 03:35:53;;;;;;;63.78;29.23;;;3.50;99.90;;;;;;5033422;28;20018;-74
2021/12/08 03:38:21;;;;;;;64.80;28.42;;;3.50;99.90;;;;;;5032328;28;20410;-74
2021/12/08 03:40:48;;;;;;;70.00;28.48;;;3.50;99.90;;;;;;5033658;28;20029;-74
2021/12/08 03:43:14;;;;;;;64.18;28.50;;;3.50;99.90;;;;;;5033690;28;20033;-75
2021/12/08 03:45:44;;;;;;;62.97;27.75;;;3.50;99.90;;;;;;5033828;28;20022;-75
2021/12/08 03:48:20;;;;;;;59.03;27.95;;;3.60;99.90;;;;;;5032930;28;20406;-75
2021/12/08 03:50:46;;;;;;;65.20;28.27;;;3.60;99.90;;;;;;5033812;28;20083;-75
2021/12/08 03:53:15;;;;;;;63.25;28.55;;;3.50;99.90;;;;;;5037906;28;20425;-74
2021/12/08 03:55:43;;;;;;;58.88;27.33;;;3.60;99.90;;;;;;5040341;28;20493;-75
2021/12/08 03:58:10;;;;;;;65.97;27.38;;;3.60;99.90;;;;;;5035894;28;20398;-75
2021/12/08 04:00:36;;;;;;;61.53;27.17;;;3.60;99.90;;;;;;5032320;28;20037;-74
2021/12/08 04:03:04;;;;;;;61.80;27.65;;;3.60;99.90;;;;;;5033998;28;20035;-76
2021/12/08 04:05:40;;;;;;;65.13;27.35;;;3.60;99.90;;;;;;5032884;28;20029;-74
2021/12/08 04:08:15;;;;;;;57.22;25.83;;;3.60;99.90;;;;;;5033564;28;20056;-74
2021/12/08 04:10:43;;;;;;;60.63;27.27;;;3.50;99.90;;;;;;5033090;28;20037;-75
2021/12/08 04:13:09;;;;;;;65.65;27.63;;;3.60;99.90;;;;;;5033254;28;20476;-75
2021/12/08 04:15:35;;;;;;;56.85;26.75;;;3.50;99.90;;;;;;5032600;28;20040;-74
2021/12/08 04:18:01;;;;;;;59.42;26.80;;;3.50;99.90;;;;;;5032889;28;20028;-74
2021/12/08 04:20:34;;;;;;;62.45;27.77;;;3.50;99.90;;;;;;5033047;28;20021;-74
2021/12/08 04:23:01;;;;;;;59.63;26.60;;;3.50;99.90;;;;;;5032798;28;20108;-74
2021/12/08 04:25:31;;;;;;;61.80;26.67;;;3.50;99.90;;;;;;5032704;28;20025;-74
2021/12/08 04:27:58;;;;;;;55.92;26.17;;;3.50;99.90;;;;;;5032857;28;20033;-76
2021/12/08 04:30:26;;;;;;;60.45;26.88;;;3.60;99.90;;;;;;5032391;28;20061;-73
2021/12/08 04:32:52;;;;;;;55.72;25.90;;;3.60;99.90;;;;;;5032374;28;20021;-74
2021/12/08 04:35:20;;;;;;;66.22;26.88;;;3.60;99.90;;;;;;5032569;28;20467;-75
2021/12/08 04:37:51;;;;;;;62.30;27.52;;;3.50;99.90;;;;;;5033125;28;20056;-76
2021/12/08 04:40:36;;;;;;;60.10;28.23;;;3.60;99.90;;;;;;5031625;28;20367;-73
2021/12/08 04:46:04;;;;;;;63.83;27.80;;;3.50;99.90;;;;;;5032316;28;20083;-74
2021/12/08 05:00:18;;;;;;;64.10;27.63;;;3.20;99.90;;;;;;5033109;28;20060;-74
2021/12/08 05:10:16;;;;;;;75.70;31.25;;;2.80;99.90;;;;;;5041057;28;20044;-74
2021/12/08 05:12:43;;;;;;;54.30;23.85;;;2.80;99.90;;;;;;5043141;28;20036;-73
2021/12/08 05:15:16;;;;;;;66.95;28.75;;;2.80;99.90;;;;;;5041954;28;20475;-75
2021/12/08 05:17:50;;;;;;;68.40;28.80;;;2.70;99.90;;;;;;5041493;28;20029;-74
2021/12/08 05:20:15;;;;;;;68.73;30.57;;;2.70;99.90;;;;;;5036948;28;20025;-74
2021/12/08 05:22:48;;;;;;;65.43;30.20;;;2.70;99.90;;;;;;5034087;28;20267;-75
2021/12/08 05:25:17;;;;;;;71.22;30.60;;;2.70;99.90;;;;;;5033163;28;20390;-75
2021/12/08 05:27:47;;;;;;;65.82;30.65;;;2.70;99.90;;;;;;5032198;28;20028;-74
2021/12/08 05:30:40;;;;;;;76.72;31.65;;;2.70;99.90;;;;;;5032447;28;20022;-76
2021/12/08 05:33:07;;;;;;;73.85;30.48;;;2.60;99.90;;;;;;5032515;28;20356;-74
2021/12/08 05:35:34;;;;;;;62.25;30.10;;;2.70;99.90;;;;;;5033599;28;20037;-74
2021/12/08 05:38:00;;;;;;;64.63;30.45;;;2.70;99.90;;;;;;5032089;28;20482;-75
2021/12/08 05:40:40;;;;;;;64.70;30.10;;;2.70;99.90;;;;;;5033153;28;20045;-74
2021/12/08 05:43:07;;;;;;;64.68;29.67;;;2.70;99.90;;;;;;5033219;28;20112;-74
2021/12/08 05:45:33;;;;;;;68.10;31.05;;;2.60;99.90;;;;;;5032058;28;20109;-73
2021/12/08 05:47:59;;;;;;;64.25;30.85;;;2.60;99.90;;;;;;5032063;28;20057;-75
2021/12/08 05:50:34;;;;;;;62.63;29.55;;;2.60;99.90;;;;;;5030671;28;20097;-74
2021/12/08 05:52:59;;;;;;;;;;;2.60;99.90;;;;;;5033856;28;20033;-74
2021/12/08 05:55:25;;;;;;;61.60;30.50;;;2.50;99.90;;;;;;5033047;28;20334;-74
2021/12/08 05:57:51;;;;;;;68.65;31.75;;;2.50;99.90;;;;;;5032873;28;20076;-73
2021/12/08 06:00:21;;;;;;;69.57;32.65;;;2.50;99.90;;;;;;5030625;28;20064;-74
2021/12/08 06:02:47;;;;;;;64.45;31.17;;;2.50;99.90;;;;;;5031443;28;20398;-76
2021/12/08 06:05:14;;;;;;;70.75;33.33;;;2.50;99.90;;;;;;5033357;28;20045;-74
2021/12/08 06:07:42;;;;;;;62.33;31.85;;;2.50;99.90;;;;;;5032503;28;20033;-75
2021/12/08 06:10:13;;;;;;;71.68;33.25;;;2.50;99.90;;;;;;5032313;28;20076;-76
2021/12/08 06:12:39;;;;;;;78.93;35.90;;;2.40;99.90;;;;;;5034281;28;20026;-75
2021/12/08 06:15:06;;;;;;;72.55;33.70;;;2.40;99.90;;;;;;5035580;28;20033;-74
2021/12/08 06:17:32;;;;;;;70.82;33.97;;;2.40;99.90;;;;;;5035263;28;20394;-74
2021/12/08 06:19:58;;;;;;;66.70;32.83;;;2.40;99.90;;;;;;5035331;28;20029;-74
2021/12/08 06:22:26;;;;;;;77.85;34.15;;;2.40;99.90;;;;;;5035599;28;20058;-75
2021/12/08 06:24:53;;;;;;;77.65;34.03;;;2.40;99.90;;;;;;5038939;28;20030;-76
2021/12/08 06:27:19;;;;;;;69.13;33.22;;;2.30;99.90;;;;;;5039492;28;20032;-74
2021/12/08 06:29:47;;;;;;;81.65;37.25;;;2.30;99.90;;;;;;5039610;28;20114;-76
2021/12/08 06:32:14;;;;;;;71.85;33.78;;;2.30;99.90;;;;;;5036290;28;20471;-74
2021/12/08 06:34:44;;;;;;;69.93;33.47;;;2.30;99.90;;;;;;5035904;28;20399;-75
2021/12/08 06:37:15;;;;;;;75.80;35.08;;;2.30;99.90;;;;;;5035662;28;20022;-74
2021/12/08 06:39:51;;;;;;;80.97;35.58;;;2.30;99.90;;;;;;5036458;28;20054;-76
2021/12/08 06:42:22;;;;;;;69.15;34.17;;;2.30;99.90;;;;;;5037717;28;20448;-75
2021/12/08 06:44:51;;;;;;;71.07;32.85;;;2.30;99.90;;;;;;5039250;28;20036;-74
2021/12/08 06:47:21;;;;;;;71.30;34.15;;;2.30;99.90;;;;;;5040645;28;20033;-75
2021/12/08 06:49:49;;;;;;;78.30;35.00;;;2.40;99.90;;;;;;5035787;28;20459;-75
2021/12/08 06:52:31;;;;;;;74.35;34.33;;;2.30;99.90;;;;;;5034307;28;20091;-75
2021/12/08 06:55:11;;;;;;;77.03;35.33;;;2.40;99.90;;;;;;5035710;28;20033;-73
2021/12/08 06:57:51;;;;;;;75.88;36.25;;;2.40;99.90;;;;;;5034888;28;20017;-75
2021/12/08 07:00:32;;;;;;;78.78;34.35;;;2.40;99.90;;;;;;5035063;28;20386;-75
2021/12/08 07:03:18;;;;;;;72.70;35.38;;;2.40;99.90;;;;;;5033357;28;20081;-75
2021/12/08 07:06:06;;;;;;;80.70;36.50;;;2.40;99.90;;;;;;5034810;28;20062;-75
2021/12/08 07:08:38;;;;;;;70.70;32.97;;;2.40;99.90;;;;;;5035289;28;20040;-76
2021/12/08 07:11:05;;;;;;;73.93;34.15;;;2.40;99.90;;;;;;5034873;28;20083;-75
2021/12/08 07:13:33;;;;;;;73.63;34.20;;;2.40;99.90;;;;;;5034810;28;20021;-75
2021/12/08 07:16:11;;;;;;;74.40;34.42;;;2.40;99.90;;;;;;5034648;28;20037;-74
2021/12/08 07:18:52;;;;;;;77.25;34.92;;;2.40;99.90;;;;;;5034933;28;20026;-76
2021/12/08 07:21:22;;;;;;;72.75;33.75;;;2.40;99.90;;;;;;5035335;28;20085;-75
2021/12/08 07:24:01;;;;;;;79.15;36.75;;;2.40;99.90;;;;;;5033464;28;20025;-75
2021/12/08 07:26:29;;;;;;;80.55;35.88;;;2.40;99.90;;;;;;5034857;28;20021;-76
2021/12/08 07:28:56;;;;;;;77.65;35.97;;;2.40;99.90;;;;;;5034599;28;20033;-75
2021/12/08 07:31:32;;;;;;;80.85;36.67;;;2.40;99.90;;;;;;5034638;28;20026;-75
2021/12/08 07:34:04;;;;;;;80.10;38.80;;;2.40;99.90;;;;;;5026649;28;20097;-75
2021/12/08 07:36:30;;;;;;;70.15;35.10;;;2.50;99.90;;;;;;5033692;28;20022;-74
2021/12/08 07:38:59;;;;;;;71.68;35.55;;;2.50;99.90;;;;;;5035528;28;20032;-75
2021/12/08 07:41:33;;;;;;;77.85;35.13;;;2.50;99.90;;;;;;5035285;28;20079;-77
2021/12/08 07:44:06;;;;;;;80.35;35.30;;;2.50;99.90;;;;;;5038441;28;20421;-75
2021/12/08 07:46:35;;;;;;;72.93;35.25;;;2.50;99.90;;;;;;5037224;28;20478;-75
2021/12/08 07:49:08;;;;;;;76.15;35.63;;;2.50;99.90;;;;;;5036249;28;20030;-76
2021/12/08 07:51:57;;;;;;;78.07;34.13;;;2.50;99.90;;;;;;5035216;28;20036;-75
2021/12/08 07:54:25;;;;;;;82.28;37.55;;;2.50;99.90;;;;;;5034382;28;20040;-75
2021/12/08 07:56:55;;;;;;;72.15;35.25;;;2.50;99.90;;;;;;5034376;28;20529;-74
2021/12/08 07:59:21;;;;;;;76.65;33.85;;;2.60;99.90;;;;;;5034112;28;20092;-75
2021/12/08 08:01:50;;;;;;;75.35;35.55;;;2.60;99.90;;;;;;5033697;28;20045;-74
2021/12/08 08:04:19;;;;;;;78.85;35.70;;;2.60;99.90;;;;;;5033609;28;20067;-74
2021/12/08 08:06:48;;;;;;;77.35;34.92;;;2.70;99.90;;;;;;5031792;28;20026;-74
2021/12/08 08:09:21;;;;;;;70.97;34.17;;;2.70;99.90;;;;;;5033459;28;20024;-75
2021/12/08 08:11:55;;;;;;;73.50;35.07;;;2.70;99.90;;;;;;5033760;28;20056;-76
2021/12/08 08:14:24;;;;;;;68.43;34.35;;;2.70;99.90;;;;;;5033926;28;20288;-74
2021/12/08 08:16:55;;;;;;;69.38;33.75;;;2.70;99.90;;;;;;5034103;28;20033;-76
2021/12/08 08:19:26;;;;;;;70.22;32.53;;;2.80;99.90;;;;;;5034305;28;20020;-75
2021/12/08 08:21:57;;;;;;;72.47;33.75;;;2.80;99.90;;;;;;5032740;28;20075;-75
2021/12/08 08:24:23;;;;;;;67.93;33.70;;;2.80;99.90;;;;;;5032385;28;20032;-75
2021/12/08 08:26:53;;;;;;;73.22;32.67;;;2.80;99.90;;;;;;5033743;28;20128;-75
2021/12/08 08:29:19;;;;;;;68.32;33.22;;;2.80;99.90;;;;;;5034347;28;20029;-75
2021/12/08 08:31:53;;;;;;;68.10;32.45;;;2.80;99.90;;;;;;5033860;28;20075;-75
2021/12/08 08:34:19;;;;;;;65.18;30.75;;;2.80;99.90;;;;;;5034910;28;20079;-77
2021/12/08 08:36:47;;;;;;;61.60;31.90;;;2.90;99.90;;;;;;5031923;28;20029;-74
2021/12/08 08:39:20;;;;;;;63.60;31.67;;;2.90;99.90;;;;;;5033714;28;20095;-75
2021/12/08 08:42:16;;;;;;;65.45;32.38;;;2.90;99.90;;;;;;5033680;28;20117;-76
2021/12/08 08:44:50;;;;;;;63.35;31.15;;;3.00;99.90;;;;;;5033501;28;20018;-75
2021/12/08 08:47:20;;;;;;;63.10;30.13;;;3.10;99.90;;;;;;5033080;28;20041;-75
2021/12/08 08:49:46;;;;;;;63.88;30.40;;;3.10;99.90;;;;;;5033655;28;20025;-74
2021/12/08 08:52:24;;;;;;;63.72;30.58;;;3.00;99.90;;;;;;5034903;28;20026;-74
2021/12/08 08:54:53;;;;;;;62.92;30.95;;;3.10;99.90;;;;;;5035249;28;20017;-76
2021/12/08 08:57:35;;;;;;;61.65;31.55;;;3.10;99.90;;;;;;5038275;28;20486;-77
2021/12/08 09:00:22;;;;;;;67.15;31.92;;;3.10;99.90;;;;;;5033619;28;20430;-75
2021/12/08 09:02:50;;;;;;;58.85;30.08;;;3.10;99.90;;;;;;5033139;28;20036;-74
2021/12/08 09:05:31;;;;;;;64.80;30.45;;;3.10;99.90;;;;;;5029941;28;20057;-75
2021/12/08 09:07:59;;;;;;;59.55;29.75;;;3.10;99.90;;;;;;5013555;28;20395;-75
2021/12/08 09:10:49;;;;;;;63.85;29.60;;;3.10;99.90;;;;;;5013401;28;20511;-75
2021/12/08 09:13:25;;;;;;;66.20;31.65;;;3.10;99.90;;;;;;5012936;28;20030;-76
2021/12/08 09:15:58;;;;;;;59.88;30.83;;;3.20;99.90;;;;;;5011597;28;20022;-75
2021/12/08 09:18:33;;;;;;;57.13;29.23;;;3.20;99.90;;;;;;5013469;28;20022;-75
2021/12/08 09:21:17;;;;;;;54.90;27.98;;;3.20;99.90;;;;;;5013817;28;20471;-74
2021/12/08 09:24:15;;;;;;;60.92;30.63;;;3.20;99.90;;;;;;5014001;28;20103;-76
2021/12/08 09:26:46;;;;;;;58.53;30.17;;;3.20;99.90;;;;;;5005275;28;20395;-74
2021/12/08 09:29:19;;;;;;;59.53;28.92;;;3.20;99.90;;;;;;5013537;28;20076;-73
2021/12/08 09:31:53;;;;;;;54.05;28.10;;;3.30;99.90;;;;;;5015840;28;20036;-74
2021/12/08 09:34:25;;;;;;;55.22;28.40;;;3.30;99.90;;;;;;5020724;28;20036;-77
2021/12/08 09:36:57;;;;;;;61.13;30.70;;;3.30;99.90;;;;;;5015115;28;20459;-73
2021/12/08 09:39:35;;;;;;;59.90;29.88;;;3.40;99.90;;;;;;5014219;28;20060;-75
2021/12/08 09:42:07;;;;;;;57.10;28.73;;;3.40;99.90;;;;;;5015015;28;20022;-76
2021/12/08 09:44:58;;;;;;;62.83;30.00;;;3.40;99.90;;;;;;5012426;28;20186;-75
2021/12/08 09:47:29;;;;;;;54.92;27.70;;;3.50;99.90;;;;;;5013435;28;20026;-73
2021/12/08 09:49:56;;;;;;;59.58;28.05;;;3.50;99.90;;;;;;5017836;28;20038;-73
2021/12/08 09:52:27;;;;;;;52.28;28.63;;;3.50;99.90;;;;;;5017271;28;20483;-74
2021/12/08 09:54:57;;;;;;;54.00;27.15;;;3.50;99.90;;;;;;5016708;28;20057;-76
2021/12/08 09:57:23;;;;;;;51.17;26.50;;;3.50;99.90;;;;;;5017507;28;20097;-77
2021/12/08 09:59:48;;;;;;;50.08;26.23;;;3.50;99.90;;;;;;5019124;28;20041;-74
2021/12/08 10:02:26;;;;;;;56.80;27.73;;;3.50;99.90;;;;;;5018169;28;20395;-75
2021/12/08 10:04:55;;;;;;;62.25;29.35;;;3.60;99.90;;;;;;5017688;28;20026;-74
2021/12/08 10:07:21;;;;;;;56.67;28.35;;;3.60;99.90;;;;;;5015920;28;20057;-75
2021/12/08 10:09:49;;;;;;;54.20;28.20;;;3.60;99.90;;;;;;5016827;28;20068;-74
2021/12/08 10:12:15;;;;;;;50.00;26.75;;;3.70;99.90;;;;;;5016914;28;20364;-76
2021/12/08 10:14:41;;;;;;;59.10;29.55;;;3.70;99.90;;;;;;5018027;28;20049;-74
2021/12/08 10:17:07;;;;;;;56.10;28.23;;;3.60;99.90;;;;;;5018479;28;20026;-74
2021/12/08 10:19:32;;;;;;;52.42;26.52;;;3.70;99.90;;;;;;5018080;28;20033;-74
2021/12/08 10:21:59;;;;;;;44.60;25.65;;;3.80;99.90;;;;;;5017762;28;20061;-72
2021/12/08 10:24:29;;;;;;;53.22;26.73;;;3.80;99.90;;;;;;5016470;28;20030;-77
2021/12/08 10:27:05;;;;;;;48.20;24.38;;;3.80;99.90;;;;;;5016682;28;20028;-75
2021/12/08 10:29:31;;;;;;;52.70;27.35;;;3.90;99.90;;;;;;5015962;28;20022;-75
2021/12/08 10:32:00;;;;;;;50.00;24.90;;;3.90;99.90;;;;;;5016864;28;20068;-74
2021/12/08 10:34:34;;;;;;;56.30;27.75;;;3.90;99.90;;;;;;5016018;28;20018;-75
2021/12/08 10:37:10;;;;;;;45.50;26.52;;;3.90;99.90;;;;;;5016291;28;20475;-76
2021/12/08 10:39:42;;;;;;;49.50;26.33;;;3.90;99.90;;;;;;5018357;28;20033;-76
2021/12/08 10:42:14;;;;;;;52.15;25.80;;;4.00;99.90;;;;;;5016684;28;20026;-77
2021/12/08 10:44:56;;;;;;;54.63;25.40;;;3.90;99.90;;;;;;5017949;28;20018;-75
2021/12/08 10:47:32;;;;;;;55.10;25.30;;;4.00;99.90;;;;;;5018131;28;20711;-75
2021/12/08 10:56:04;;;;;;;54.25;26.08;;;4.20;99.90;;;;;;5017127;28;20028;-76
2021/12/08 10:58:33;;;;;;;55.03;27.33;;;4.30;99.90;;;;;;5016369;28;20066;-79
2021/12/08 11:01:09;;;;;;;55.55;25.98;;;4.40;99.90;;;;;;5019955;28;20515;-79
2021/12/08 11:03:36;;;;;;;49.30;25.63;;;4.50;99.90;;;;;;5021019;28;20026;-77
2021/12/08 11:06:04;;;;;;;50.45;23.67;;;4.60;99.90;;;;;;5018745;28;20026;-77
2021/12/08 11:08:31;;;;;;;47.90;24.20;;;4.70;99.90;;;;;;5029624;28;20120;-76
2021/12/08 11:11:22;;;;;;;45.28;23.45;;;4.80;99.90;;;;;;5021680;28;20034;-77
2021/12/08 11:13:59;;;;;;;50.38;25.20;;;4.90;99.90;;;;;;5025795;28;20026;-79
2021/12/08 11:16:39;;;;;;;44.97;22.65;;;4.90;99.90;;;;;;5022279;28;20037;-77
2021/12/08 11:19:14;;;;;;;61.50;27.08;;;5.00;99.90;;;;;;5019321;28;20380;-76
2021/12/08 11:21:45;;;;;;;54.83;24.67;;;4.90;99.90;;;;;;5020610;28;20467;-77
2021/12/08 11:24:25;;;;;;;53.88;24.20;;;4.90;99.90;;;;;;5017082;28;20041;-78
2021/12/08 11:26:52;;;;;;;50.08;23.65;;;4.80;99.90;;;;;;5023720;28;20037;-76
2021/12/08 11:29:27;;;;;;;46.20;24.20;;;4.80;99.90;;;;;;5020051;28;20032;-75
2021/12/08 11:31:59;;;;;;;47.53;22.33;;;4.70;99.90;;;;;;5030569;28;20665;-77
2021/12/08 11:34:37;;;;;;;49.78;22.73;;;4.70;99.90;;;;;;5021185;28;20049;-77
2021/12/08 11:37:07;;;;;;;47.95;23.02;;;4.60;99.90;;;;;;5032225;28;20060;-75
2021/12/08 11:39:39;;;;;;;47.58;23.30;;;4.60;99.90;;;;;;5038604;28;20025;-75
2021/12/08 11:42:12;;;;;;;51.67;22.88;;;4.70;99.90;;;;;;5037691;28;20064;-77
2021/12/08 11:44:44;;;;;;;44.50;22.17;;;4.70;99.90;;;;;;5038989;28;20014;-73
2021/12/08 11:47:14;;;;;;;48.67;22.88;;;4.70;99.90;;;;;;5037251;28;20053;-75
2021/12/08 11:49:45;;;;;;;45.60;23.10;;;4.70;99.90;;;;;;5032570;28;20056;-77
2021/12/08 11:52:18;;;;;;;48.20;23.15;;;4.60;99.90;;;;;;5027595;28;20028;-76
2021/12/08 11:54:50;;;;;;;49.53;25.45;;;4.60;99.90;;;;;;5030240;28;20018;-76
2021/12/08 11:57:20;;;;;;;49.58;22.63;;;4.60;99.90;;;;;;5028593;28;20048;-76
2021/12/08 11:59:54;;;;;;;46.47;23.20;;;4.60;99.90;;;;;;5024852;28;20034;-75
2021/12/08 12:02:21;;;;;;;43.78;22.10;;;4.60;99.90;;;;;;5025917;28;20030;-76
2021/12/08 12:04:48;;;;;;;46.33;21.10;;;4.70;99.90;;;;;;5022802;28;20036;-76
2021/12/08 12:07:15;;;;;;;43.35;22.38;;;4.70;99.90;;;;;;5016001;28;20073;-76
2021/12/08 12:09:41;;;;;;;44.75;21.67;;;4.80;99.90;;;;;;5014809;28;20499;-75
2021/12/08 12:12:08;;;;;;;51.05;24.45;;;4.90;99.90;;;;;;5017912;28;20018;-77
2021/12/08 12:14:34;;;;;;;40.70;21.73;;;4.90;99.90;;;;;;5021960;28;20038;-79
2021/12/08 12:17:00;;;;;;;41.78;21.60;;;4.90;99.90;;;;;;5017256;28;20112;-79
2021/12/08 12:19:33;;;;;;;44.92;22.20;;;5.00;99.90;;;;;;5018532;28;20057;-77
2021/12/08 12:22:18;;;;;;;45.05;22.80;;;5.00;99.90;;;;;;5021600;28;20507;-75
2021/12/08 12:25:02;;;;;;;48.50;25.42;;;5.10;99.90;;;;;;5016290;28;20030;-77
2021/12/08 12:28:25;;;;;;;48.40;21.13;;;5.10;99.90;;;;;;5014068;28;20048;-77
2021/12/08 12:31:38;;;;;;;43.42;22.08;;;5.20;99.90;;;;;;4973269;28;20031;-77
2021/12/08 12:34:36;;;;;;;47.15;21.60;;;5.20;99.90;;;;;;4952512;28;20038;-78
2021/12/08 12:37:28;;;;;;;44.22;21.73;;;5.10;99.90;;;;;;5014536;28;20022;-77
2021/12/08 12:39:59;;;;;;;43.72;21.70;;;5.00;99.90;;;;;;5017853;28;20032;-74
2021/12/08 12:42:26;;;;;;;44.25;21.85;;;4.90;99.90;;;;;;5018513;28;20084;-77
2021/12/08 12:44:58;;;;;;;49.00;23.48;;;4.90;99.90;;;;;;5019113;28;20554;-77
2021/12/08 12:47:26;;;;;;;46.13;23.00;;;4.80;99.90;;;;;;5020760;28;20022;-77
2021/12/08 12:50:04;;;;;;;48.50;22.50;;;4.80;99.90;;;;;;5018458;28;20022;-77
2021/12/08 12:52:43;;;;;;;43.70;22.40;;;4.70;99.90;;;;;;5019877;28;20029;-77
2021/12/08 12:55:15;;;;;;;44.40;23.05;;;4.70;99.90;;;;;;5016667;28;20029;-77
2021/12/08 12:58:06;;;;;;;41.15;21.90;;;4.70;99.90;;;;;;5016977;28;20673;-77
2021/12/08 13:01:01;;;;;;;47.97;23.33;;;4.80;99.90;;;;;;5017344;28;20068;-76
2021/12/08 13:03:41;;;;;;;46.75;24.27;;;4.80;99.90;;;;;;5011632;28;20034;-76
2021/12/08 13:06:08;;;;;;;54.58;24.75;;;4.70;99.90;;;;;;5032018;28;20083;-76
2021/12/08 13:08:46;;;;;;;56.90;25.80;;;4.70;99.90;;;;;;5037291;28;20044;-76
2021/12/08 13:11:30;;;;;;;58.35;25.00;;;4.70;99.90;;;;;;5036735;28;20021;-76
2021/12/08 13:13:57;;;;;;;61.75;28.63;;;4.60;99.90;;;;;;5035297;28;20018;-75
2021/12/08 13:16:22;;;;;;;52.85;25.27;;;4.50;99.90;;;;;;5036402;28;20017;-76
2021/12/08 13:19:00;;;;;;;52.83;26.70;;;4.50;99.90;;;;;;5037615;28;20087;-75
2021/12/08 13:21:46;;;;;;;54.85;25.40;;;4.50;99.90;;;;;;5037576;28;20075;-76
2021/12/08 13:24:33;;;;;;;58.25;26.13;;;4.50;99.90;;;;;;5042120;28;20025;-76
2021/12/08 13:27:05;;;;;;;55.40;23.90;;;4.50;99.90;;;;;;5039448;28;20091;-77
2021/12/08 13:29:33;;;;;;;49.65;25.30;;;4.50;99.90;;;;;;5040804;28;20018;-77
2021/12/08 13:32:09;;;;;;;54.88;25.70;;;4.50;99.90;;;;;;5039361;28;20025;-77
2021/12/08 13:34:37;;;;;;;51.65;24.98;;;4.50;99.90;;;;;;5038073;28;20022;-76
2021/12/08 13:37:20;;;;;;;52.78;24.58;;;4.50;99.90;;;;;;5039259;28;20029;-76
2021/12/08 13:39:48;;;;;;;49.40;25.08;;;4.50;99.90;;;;;;5038568;28;20022;-77
2021/12/08 13:42:17;;;;;;;51.55;25.95;;;4.50;99.90;;;;;;5039011;28;20021;-76
2021/12/08 13:45:01;;;;;;;57.25;27.27;;;4.50;99.90;;;;;;5040857;28;20028;-77